Time;durP1;ratioP1;P1;durP2;ratioP2;P2;SDS_P1;SDS_P2;PMS_P1;PMS_P2;Temp;Humidity;BMP_temperature;BMP_pressure;BME280_temperature;BME280_humidity;BME280_pressure;Samples;Min_cycle;Max_cycle;Signal;HPM_P1;HPM_P2
2021/10/20 00:00:01;;;;;;;5.37;2.60;;;15.50;1.00;;;;;;4994574;28;20219;-60
2021/10/20 00:02:27;;;;;;;4.90;2.80;;;15.50;1.00;;;;;;4994805;28;20215;-60
2021/10/20 00:04:54;;;;;;;3.80;2.30;;;15.50;1.00;;;;;;4993781;28;20247;-60
2021/10/20 00:07:21;;;;;;;3.13;2.53;;;15.50;1.00;;;;;;4994153;28;20214;-60
2021/10/20 00:09:48;;;;;;;5.07;2.80;;;15.50;1.00;;;;;;4994476;28;20623;-59
2021/10/20 00:12:15;;;;;;;2.93;2.40;;;15.50;1.00;;;;;;4994433;28;20242;-61
2021/10/20 00:14:41;;;;;;;4.43;2.17;;;15.60;1.00;;;;;;4994175;28;20207;-61
2021/10/20 00:17:10;;;;;;;4.00;2.47;;;15.60;1.00;;;;;;4994730;28;20208;-61
2021/10/20 00:19:36;;;;;;;3.70;2.40;;;15.60;1.00;;;;;;4993913;28;20207;-61
2021/10/20 00:22:03;;;;;;;4.97;2.50;;;15.60;1.00;;;;;;4994110;28;20228;-59
2021/10/20 00:24:30;;;;;;;2.87;2.50;;;15.60;1.00;;;;;;4994449;28;20282;-59
2021/10/20 00:26:56;;;;;;;4.63;2.47;;;15.50;1.00;;;;;;4994442;28;20211;-60
2021/10/20 00:29:23;;;;;;;3.03;2.47;;;15.50;1.00;;;;;;4994010;28;20229;-60
2021/10/20 00:31:50;;;;;;;4.10;2.60;;;15.50;1.00;;;;;;4994891;28;20305;-61
2021/10/20 00:34:18;;;;;;;4.00;2.60;;;15.50;1.00;;;;;;4994479;28;20551;-61
2021/10/20 00:36:44;;;;;;;3.87;2.57;;;15.50;1.00;;;;;;4994159;28;21000;-60
2021/10/20 00:39:11;;;;;;;2.70;2.23;;;15.50;1.00;;;;;;4994628;28;20270;-60
2021/10/20 00:41:38;;;;;;;3.53;2.60;;;15.50;1.00;;;;;;4993258;28;20242;-60
2021/10/20 00:44:05;;;;;;;4.30;2.57;;;15.50;1.00;;;;;;4994106;28;20663;-60
2021/10/20 00:46:32;;;;;;;4.87;2.70;;;15.50;1.00;;;;;;4993711;28;20258;-60
2021/10/20 00:48:59;;;;;;;3.73;2.60;;;15.40;1.00;;;;;;4994442;28;20215;-60
2021/10/20 00:51:27;;;;;;;2.97;2.40;;;15.40;1.00;;;;;;4994157;28;20239;-60
2021/10/20 00:53:55;;;;;;;3.90;2.73;;;15.40;1.00;;;;;;4994683;28;20210;-60
2021/10/20 00:56:22;;;;;;;5.30;2.90;;;15.40;1.00;;;;;;4994214;28;20220;-63
2021/10/20 00:58:49;;;;;;;5.60;2.60;;;15.40;1.00;;;;;;4994809;28;20618;-60
2021/10/20 01:01:16;;;;;;;3.87;2.30;;;15.40;1.00;;;;;;4994057;28;20620;-61
2021/10/20 01:03:43;;;;;;;2.83;2.40;;;15.40;1.00;;;;;;4994356;28;20254;-60
2021/10/20 01:06:10;;;;;;;4.73;3.00;;;15.40;1.00;;;;;;4992930;28;20552;-61
2021/10/20 01:08:38;;;;;;;5.27;3.10;;;15.40;1.00;;;;;;4993470;28;20211;-61
2021/10/20 01:11:06;;;;;;;7.47;2.40;;;15.50;1.00;;;;;;4993335;28;20227;-61
2021/10/20 01:13:33;;;;;;;5.23;2.50;;;15.50;1.00;;;;;;4993264;28;20207;-62
2021/10/20 01:16:00;;;;;;;4.90;3.03;;;15.50;1.00;;;;;;4992326;28;20567;-61
2021/10/20 01:18:27;;;;;;;6.47;2.10;;;15.50;1.00;;;;;;4992755;28;20287;-61
2021/10/20 01:20:59;;;;;;;3.50;2.67;;;15.50;1.00;;;;;;4992567;28;20302;-61
2021/10/20 01:23:29;;;;;;;8.20;2.80;;;15.50;1.00;;;;;;4993332;28;20227;-61
2021/10/20 01:25:56;;;;;;;4.97;3.00;;;15.50;1.00;;;;;;4992928;28;20258;-61
2021/10/20 01:28:22;;;;;;;4.07;2.37;;;15.50;1.00;;;;;;4992066;28;20207;-61
2021/10/20 01:30:49;;;;;;;3.17;2.43;;;15.50;1.00;;;;;;4992586;28;20227;-61
2021/10/20 01:33:16;;;;;;;5.23;2.33;;;15.50;1.00;;;;;;4992932;28;20290;-61
2021/10/20 01:35:42;;;;;;;4.40;2.40;;;15.50;1.00;;;;;;4992299;28;20659;-61
2021/10/20 01:38:09;;;;;;;3.23;2.60;;;15.50;1.00;;;;;;4991961;28;20207;-61
2021/10/20 01:40:37;;;;;;;5.47;2.37;;;15.50;1.00;;;;;;4992548;28;20244;-61
2021/10/20 01:43:04;;;;;;;6.77;2.53;;;15.50;1.00;;;;;;4993026;28;20654;-60
2021/10/20 01:45:30;;;;;;;3.40;2.53;;;15.50;1.00;;;;;;4992273;28;20204;-61
2021/10/20 01:47:57;;;;;;;3.60;2.47;;;15.50;1.00;;;;;;4992998;28;20418;-60
2021/10/20 01:50:24;;;;;;;3.97;2.77;;;15.50;1.00;;;;;;4992540;28;20227;-61
2021/10/20 01:52:51;;;;;;;4.33;2.50;;;15.50;1.00;;;;;;4992959;28;20763;-61
2021/10/20 01:55:18;;;;;;;4.60;2.77;;;15.50;1.00;;;;;;4992459;28;20680;-61
2021/10/20 01:57:46;;;;;;;5.20;2.50;;;15.40;1.00;;;;;;4992919;28;20207;-61
2021/10/20 02:00:13;;;;;;;3.53;2.70;;;15.40;1.00;;;;;;4991971;28;20274;-60
2021/10/20 02:02:40;;;;;;;5.23;2.83;;;15.40;1.00;;;;;;4992525;28;20242;-61
2021/10/20 02:05:08;;;;;;;5.60;2.73;;;15.40;1.00;;;;;;4991696;28;20281;-61
2021/10/20 02:07:35;;;;;;;5.83;3.03;;;15.50;1.00;;;;;;4992465;28;20212;-61
2021/10/20 02:10:01;;;;;;;5.87;3.03;;;15.50;1.00;;;;;;4992198;28;20631;-61
2021/10/20 02:12:28;;;;;;;4.60;2.73;;;15.40;1.00;;;;;;4992382;28;20215;-59
2021/10/20 02:14:56;;;;;;;3.57;2.60;;;15.50;1.00;;;;;;4992350;28;20212;-61
2021/10/20 02:17:23;;;;;;;4.67;2.73;;;15.50;1.00;;;;;;4991481;28;20211;-61
2021/10/20 02:19:49;;;;;;;4.23;2.80;;;15.40;1.00;;;;;;4991822;28;20207;-58
2021/10/20 02:22:16;;;;;;;4.40;2.93;;;15.50;1.00;;;;;;4991854;28;20266;-61
2021/10/20 02:24:43;;;;;;;4.53;2.47;;;15.40;1.00;;;;;;4991874;28;20220;-61
2021/10/20 02:27:09;;;;;;;3.00;2.50;;;15.50;1.00;;;;;;4991411;28;20216;-59
2021/10/20 02:29:36;;;;;;;5.17;2.87;;;15.50;1.00;;;;;;4991056;28;20266;-61
2021/10/20 02:32:04;;;;;;;5.67;2.70;;;15.50;1.00;;;;;;4991887;28;20227;-60
2021/10/20 02:34:31;;;;;;;3.90;2.70;;;15.40;1.00;;;;;;4991814;28;20212;-61
2021/10/20 02:36:58;;;;;;;5.93;3.07;;;15.50;1.00;;;;;;4991451;28;20215;-61
2021/10/20 02:39:25;;;;;;;6.60;3.00;;;15.40;1.00;;;;;;4991936;28;20262;-61
2021/10/20 02:41:51;;;;;;;5.47;3.10;;;15.40;1.00;;;;;;4991524;28;20232;-60
2021/10/20 02:44:18;;;;;;;4.80;2.80;;;15.40;1.00;;;;;;4991178;28;20290;-61
2021/10/20 02:46:45;;;;;;;5.53;3.03;;;15.40;1.00;;;;;;4990585;28;20827;-61
2021/10/20 02:49:13;;;;;;;5.60;3.40;;;15.30;1.00;;;;;;4991747;28;20662;-60
2021/10/20 02:51:39;;;;;;;5.80;2.73;;;15.20;1.00;;;;;;4991765;28;20231;-61
2021/10/20 02:54:06;;;;;;;3.43;2.43;;;15.20;1.00;;;;;;4993766;28;20551;-61
2021/10/20 02:56:33;;;;;;;5.90;2.87;;;15.30;1.00;;;;;;4996597;28;20693;-61
2021/10/20 02:59:00;;;;;;;4.23;3.00;;;15.30;1.00;;;;;;4996524;28;20211;-60
2021/10/20 03:01:27;;;;;;;5.60;2.90;;;15.30;1.00;;;;;;4996448;28;20309;-61
2021/10/20 03:03:54;;;;;;;6.23;3.50;;;15.20;1.00;;;;;;4996542;28;20231;-61
2021/10/20 03:06:22;;;;;;;6.50;3.00;;;15.20;1.00;;;;;;4996105;28;20208;-61
2021/10/20 03:08:49;;;;;;;4.00;2.83;;;15.20;1.00;;;;;;4996022;28;20204;-61
2021/10/20 03:11:16;;;;;;;5.60;2.83;;;15.30;1.00;;;;;;4995353;28;20321;-58
2021/10/20 03:13:43;;;;;;;5.73;3.13;;;15.30;1.00;;;;;;4995906;28;20212;-59
2021/10/20 03:16:09;;;;;;;3.00;2.70;;;15.30;1.00;;;;;;4995409;28;20207;-61
2021/10/20 03:18:36;;;;;;;5.27;2.80;;;15.30;1.00;;;;;;4995882;28;20258;-60
2021/10/20 03:21:03;;;;;;;4.00;2.87;;;15.30;1.00;;;;;;4994817;28;20230;-61
2021/10/20 03:23:31;;;;;;;6.60;3.40;;;15.30;1.00;;;;;;4995854;28;20207;-61
2021/10/20 03:25:58;;;;;;;8.90;3.10;;;15.30;1.00;;;;;;4994510;28;20227;-61
2021/10/20 03:28:25;;;;;;;5.37;3.00;;;15.30;1.00;;;;;;4995113;28;20204;-61
2021/10/20 03:30:51;;;;;;;4.63;2.90;;;15.40;1.00;;;;;;4995141;28;20278;-61
2021/10/20 03:33:18;;;;;;;3.90;3.00;;;15.40;1.00;;;;;;4995427;28;20215;-61
2021/10/20 03:35:45;;;;;;;5.17;3.10;;;15.40;1.00;;;;;;4994321;28;20207;-60
2021/10/20 03:38:11;;;;;;;6.47;2.90;;;15.30;1.00;;;;;;4994800;28;20270;-61
2021/10/20 03:40:39;;;;;;;4.07;2.90;;;15.20;1.00;;;;;;4994535;28;20336;-61
2021/10/20 03:43:07;;;;;;;5.67;3.10;;;15.20;1.00;;;;;;4994585;28;20215;-61
2021/10/20 03:45:34;;;;;;;6.60;3.03;;;15.30;1.00;;;;;;4995143;28;20635;-61
2021/10/20 03:48:00;;;;;;;2.93;2.60;;;15.30;1.00;;;;;;4995684;28;20618;-61
2021/10/20 03:50:27;;;;;;;6.73;3.87;;;15.20;1.00;;;;;;4995375;28;20227;-61
2021/10/20 03:52:54;;;;;;;4.57;3.37;;;15.30;1.00;;;;;;4995373;28;20743;-61
2021/10/20 03:55:20;;;;;;;6.27;3.23;;;15.30;1.00;;;;;;4995317;28;20204;-61
2021/10/20 03:57:48;;;;;;;5.53;3.40;;;15.40;1.00;;;;;;4995238;28;20277;-61
2021/10/20 04:00:18;;;;;;;4.07;3.20;;;15.40;1.00;;;;;;4995465;28;20242;-61
2021/10/20 04:02:46;;;;;;;5.00;3.10;;;15.40;1.00;;;;;;4992689;28;20274;-59
2021/10/20 04:05:13;;;;;;;3.73;3.20;;;15.40;1.00;;;;;;4994479;28;20231;-60
2021/10/20 04:07:41;;;;;;;6.23;3.00;;;15.40;1.00;;;;;;4994711;28;20211;-61
2021/10/20 04:10:09;;;;;;;6.90;3.37;;;15.40;1.00;;;;;;4995282;28;20232;-61
2021/10/20 04:12:36;;;;;;;6.17;3.10;;;15.40;1.00;;;;;;4994431;28;20269;-60
2021/10/20 04:15:05;;;;;;;4.23;3.13;;;15.40;1.00;;;;;;4993354;28;20614;-60
2021/10/20 04:17:31;;;;;;;4.37;3.30;;;15.40;1.00;;;;;;4992789;28;20243;-60
2021/10/20 04:19:58;;;;;;;4.60;3.10;;;15.30;1.00;;;;;;4994587;28;20226;-61
2021/10/20 04:22:25;;;;;;;4.33;3.23;;;15.30;1.00;;;;;;4995142;28;20204;-61
2021/10/20 04:24:51;;;;;;;4.17;3.30;;;15.30;1.00;;;;;;4994560;28;20572;-60
2021/10/20 04:27:18;;;;;;;4.50;3.40;;;15.30;1.00;;;;;;4994737;28;20290;-58
2021/10/20 04:29:45;;;;;;;5.17;3.00;;;15.30;1.00;;;;;;4999430;28;20207;-61
2021/10/20 04:32:13;;;;;;;6.17;3.43;;;15.30;1.00;;;;;;4994595;28;20263;-60
2021/10/20 04:34:39;;;;;;;6.93;3.40;;;15.20;1.00;;;;;;4994415;28;20258;-59
2021/10/20 04:37:06;;;;;;;4.07;3.20;;;15.10;1.00;;;;;;4994638;28;20258;-59
2021/10/20 04:39:33;;;;;;;5.03;3.23;;;15.10;1.00;;;;;;4994590;28;20738;-60
2021/10/20 04:41:59;;;;;;;3.50;3.00;;;15.10;1.00;;;;;;4994655;28;20227;-62
2021/10/20 04:44:26;;;;;;;4.47;3.40;;;15.10;1.00;;;;;;4994219;28;20227;-59
2021/10/20 04:46:53;;;;;;;5.40;3.03;;;15.10;1.00;;;;;;4994038;28;20212;-63
2021/10/20 04:49:21;;;;;;;6.47;3.53;;;15.10;1.00;;;;;;4994668;28;20246;-60
2021/10/20 04:51:47;;;;;;;4.53;3.60;;;15.10;1.00;;;;;;4994232;28;20228;-62
2021/10/20 04:54:14;;;;;;;8.93;3.83;;;15.10;1.00;;;;;;4994368;28;20223;-62
2021/10/20 04:56:40;;;;;;;4.33;3.77;;;15.00;1.00;;;;;;4993940;28;20751;-63
2021/10/20 04:59:07;;;;;;;9.40;3.67;;;15.00;1.00;;;;;;4994381;28;20212;-61
2021/10/20 05:01:34;;;;;;;8.27;3.27;;;15.00;1.00;;;;;;4994067;28;20239;-60
2021/10/20 05:04:01;;;;;;;4.17;3.40;;;15.00;1.00;;;;;;4994017;28;20692;-61
2021/10/20 05:06:29;;;;;;;5.10;3.33;;;15.00;1.00;;;;;;4993692;28;20635;-59
2021/10/20 05:08:55;;;;;;;4.87;3.40;;;15.00;1.00;;;;;;4993840;28;20204;-58
2021/10/20 05:11:22;;;;;;;5.30;3.33;;;15.00;1.00;;;;;;4993210;28;20224;-59
2021/10/20 05:13:48;;;;;;;5.37;3.53;;;15.00;1.00;;;;;;4992901;28;20222;-57
2021/10/20 05:16:15;;;;;;;6.07;3.47;;;14.90;1.00;;;;;;4992528;28;20212;-62
2021/10/20 05:18:43;;;;;;;4.57;3.53;;;15.00;1.00;;;;;;4993982;28;20274;-58
2021/10/20 05:21:09;;;;;;;4.10;3.50;;;15.00;1.00;;;;;;4993876;28;20223;-65
2021/10/20 05:23:37;;;;;;;5.67;3.73;;;15.00;1.00;;;;;;4993880;28;20211;-65
2021/10/20 05:26:04;;;;;;;7.63;4.00;;;15.00;1.00;;;;;;4993289;28;20223;-65
2021/10/20 05:28:31;;;;;;;5.03;3.37;;;14.90;1.00;;;;;;4993713;28;20207;-65
2021/10/20 05:30:58;;;;;;;6.73;3.80;;;14.90;1.00;;;;;;4993640;28;20227;-62
2021/10/20 05:33:24;;;;;;;5.37;3.40;;;14.90;1.00;;;;;;4992896;28;20672;-63
2021/10/20 05:35:51;;;;;;;8.53;4.00;;;14.90;1.00;;;;;;4993146;28;20207;-65
2021/10/20 05:38:18;;;;;;;9.60;4.30;;;14.90;1.00;;;;;;4997197;28;20241;-63
2021/10/20 05:40:46;;;;;;;5.77;3.90;;;14.90;1.00;;;;;;5012684;28;20231;-63
2021/10/20 05:43:12;;;;;;;8.00;5.10;;;14.90;1.00;;;;;;5013110;28;20207;-63
2021/10/20 05:45:39;;;;;;;6.27;4.03;;;14.90;1.00;;;;;;5012378;28;20234;-65
2021/10/20 05:48:06;;;;;;;4.43;3.60;;;15.00;1.00;;;;;;5012923;28;20245;-66
2021/10/20 05:50:33;;;;;;;7.73;4.37;;;15.00;1.00;;;;;;5012712;28;20642;-66
2021/10/20 05:52:59;;;;;;;6.00;4.23;;;15.10;1.00;;;;;;4995247;28;20266;-62
2021/10/20 05:55:26;;;;;;;4.53;3.60;;;15.10;1.00;;;;;;4992067;28;20664;-61
2021/10/20 05:57:54;;;;;;;6.10;3.90;;;15.10;1.00;;;;;;4992666;28;20203;-63
2021/10/20 06:00:21;;;;;;;5.53;4.30;;;15.10;1.00;;;;;;4992574;28;20231;-63
2021/10/20 06:02:47;;;;;;;6.13;4.43;;;15.10;1.00;;;;;;4992619;28;20274;-62
2021/10/20 06:05:15;;;;;;;6.90;4.30;;;15.10;1.00;;;;;;4992403;28;20224;-65
2021/10/20 06:07:43;;;;;;;8.83;4.00;;;15.10;1.00;;;;;;4992404;28;20208;-65
2021/10/20 06:10:10;;;;;;;7.60;4.40;;;15.10;1.00;;;;;;4992411;28;20639;-64
2021/10/20 06:12:37;;;;;;;4.50;3.50;;;15.10;1.00;;;;;;4992612;28;20215;-64
2021/10/20 06:15:07;;;;;;;8.03;4.30;;;15.20;1.00;;;;;;4992160;28;20266;-64
2021/10/20 06:17:34;;;;;;;5.63;3.70;;;15.10;1.00;;;;;;4992498;28;20203;-64
2021/10/20 06:20:01;;;;;;;7.60;4.40;;;15.10;1.00;;;;;;4992317;28;20266;-63
2021/10/20 06:22:28;;;;;;;7.00;3.77;;;15.10;1.00;;;;;;4992125;28;20211;-64
2021/10/20 06:24:54;;;;;;;6.20;4.67;;;15.10;1.00;;;;;;4991871;28;20227;-65
2021/10/20 06:27:21;;;;;;;8.87;3.80;;;15.10;1.00;;;;;;4992379;28;20243;-67
2021/10/20 06:29:48;;;;;;;8.47;4.00;;;15.10;1.00;;;;;;4992225;28;20207;-65
2021/10/20 06:32:16;;;;;;;5.77;3.80;;;15.00;1.00;;;;;;4992314;28;20216;-66
2021/10/20 06:34:43;;;;;;;6.93;3.97;;;15.10;1.00;;;;;;4991639;28;20208;-66
2021/10/20 06:37:09;;;;;;;6.97;4.10;;;15.10;1.00;;;;;;4991934;28;20243;-65
2021/10/20 06:39:36;;;;;;;5.07;4.37;;;15.10;1.00;;;;;;4992261;28;20626;-65
2021/10/20 06:42:04;;;;;;;5.80;3.60;;;15.00;1.00;;;;;;4992221;28;20359;-62
2021/10/20 06:44:30;;;;;;;5.40;3.67;;;15.00;1.00;;;;;;4991800;28;20239;-65
2021/10/20 06:46:57;;;;;;;5.90;4.17;;;15.00;1.00;;;;;;4992004;28;20234;-64
2021/10/20 06:49:25;;;;;;;5.17;4.13;;;15.00;1.00;;;;;;4991877;28;20258;-65
2021/10/20 06:51:52;;;;;;;6.83;3.83;;;15.00;1.00;;;;;;4991809;28;20239;-63
2021/10/20 06:54:19;;;;;;;7.03;3.87;;;15.00;1.00;;;;;;4992017;28;20211;-64
2021/10/20 06:56:47;;;;;;;6.03;4.10;;;15.00;1.00;;;;;;4991809;28;20207;-62
2021/10/20 06:59:13;;;;;;;8.23;4.50;;;15.00;1.00;;;;;;4991841;28;20215;-62
2021/10/20 07:01:40;;;;;;;6.00;4.17;;;15.00;1.00;;;;;;4992851;28;20235;-64
2021/10/20 07:04:07;;;;;;;5.57;4.00;;;15.00;1.00;;;;;;4991450;28;20214;-60
2021/10/20 07:06:37;;;;;;;4.77;4.00;;;15.00;1.00;;;;;;4991389;28;20278;-62
2021/10/20 07:09:04;;;;;;;6.40;4.07;;;15.00;1.00;;;;;;4992131;28;20273;-59
2021/10/20 07:11:30;;;;;;;7.67;4.07;;;15.00;1.00;;;;;;4991972;28;20630;-62
2021/10/20 07:13:57;;;;;;;5.77;3.90;;;15.10;1.00;;;;;;4991855;28;20216;-65
2021/10/20 07:16:24;;;;;;;5.73;3.80;;;15.20;1.00;;;;;;4991162;28;20909;-65
2021/10/20 07:18:51;;;;;;;7.40;4.03;;;15.20;1.00;;;;;;4991556;28;20215;-63
2021/10/20 07:21:18;;;;;;;6.60;4.50;;;15.30;1.00;;;;;;4991889;28;20235;-63
2021/10/20 07:23:46;;;;;;;6.43;4.30;;;15.30;1.00;;;;;;4991599;28;20314;-63
2021/10/20 07:26:14;;;;;;;4.80;3.90;;;15.40;1.00;;;;;;4991556;28;20289;-62
2021/10/20 07:28:41;;;;;;;10.10;4.37;;;15.30;1.00;;;;;;4992033;28;20215;-62
2021/10/20 07:31:08;;;;;;;4.77;4.10;;;15.30;1.00;;;;;;4991822;28;20274;-60
2021/10/20 07:33:35;;;;;;;5.30;4.43;;;15.30;1.00;;;;;;4991795;28;20630;-66
2021/10/20 07:36:01;;;;;;;7.40;4.10;;;15.30;1.00;;;;;;4991491;28;20277;-66
2021/10/20 07:38:28;;;;;;;5.03;4.10;;;15.30;1.00;;;;;;4991796;28;20207;-65
2021/10/20 07:40:56;;;;;;;5.30;3.97;;;15.40;1.00;;;;;;4995369;28;20286;-66
2021/10/20 07:43:23;;;;;;;4.93;3.97;;;15.50;1.00;;;;;;4995053;28;20208;-64
2021/10/20 07:45:49;;;;;;;5.77;4.40;;;15.40;1.00;;;;;;4994422;28;20227;-64
2021/10/20 07:48:16;;;;;;;5.10;4.13;;;15.50;1.00;;;;;;4995365;28;20243;-65
2021/10/20 07:50:43;;;;;;;4.70;4.07;;;15.50;1.00;;;;;;4995096;28;20281;-63
2021/10/20 07:53:10;;;;;;;6.10;4.43;;;15.50;1.00;;;;;;4994955;28;20223;-62
2021/10/20 07:55:37;;;;;;;5.40;4.50;;;15.50;1.00;;;;;;4994466;28;20614;-64
2021/10/20 07:58:05;;;;;;;5.00;4.10;;;15.60;1.00;;;;;;4995029;28;20239;-64
2021/10/20 08:00:32;;;;;;;9.93;4.87;;;15.60;1.00;;;;;;4994491;28;20306;-66
2021/10/20 08:03:01;;;;;;;8.13;4.13;;;15.70;1.00;;;;;;4994808;28;20215;-67
2021/10/20 08:05:27;;;;;;;6.83;4.00;;;15.70;1.00;;;;;;4994565;28;20247;-66
2021/10/20 08:07:54;;;;;;;7.03;4.20;;;15.80;1.00;;;;;;4994463;28;20680;-66
2021/10/20 08:10:24;;;;;;;5.10;3.80;;;15.90;1.00;;;;;;4994802;28;20587;-66
2021/10/20 08:12:51;;;;;;;6.10;3.93;;;15.90;1.00;;;;;;4994213;28;20711;-66
2021/10/20 08:15:19;;;;;;;6.37;4.50;;;16.00;1.00;;;;;;4994576;28;20207;-63
2021/10/20 08:17:47;;;;;;;5.60;4.30;;;16.00;1.00;;;;;;4994681;28;20211;-61
2021/10/20 08:20:16;;;;;;;7.30;5.00;;;15.90;1.00;;;;;;4994478;28;20228;-64
2021/10/20 08:22:42;;;;;;;7.87;5.03;;;15.90;1.00;;;;;;4994409;28;20282;-65
2021/10/20 08:25:10;;;;;;;6.10;4.43;;;15.90;1.00;;;;;;4994182;28;20259;-63
2021/10/20 08:27:38;;;;;;;6.93;4.50;;;15.80;1.00;;;;;;4994274;28;20704;-63
2021/10/20 08:30:06;;;;;;;6.70;4.27;;;15.80;1.00;;;;;;4994473;28;20208;-64
2021/10/20 08:32:34;;;;;;;5.63;4.17;;;15.80;1.00;;;;;;4994705;28;20626;-64
2021/10/20 08:35:01;;;;;;;5.83;4.40;;;15.80;1.00;;;;;;4994246;28;20299;-66
2021/10/20 08:37:28;;;;;;;6.77;4.53;;;15.80;1.00;;;;;;4994354;28;20204;-63
2021/10/20 08:39:54;;;;;;;4.53;3.90;;;15.80;1.00;;;;;;4993926;28;20204;-64
2021/10/20 08:42:22;;;;;;;5.63;4.60;;;15.80;1.00;;;;;;4994181;28;20247;-65
2021/10/20 08:44:48;;;;;;;5.77;4.13;;;15.80;1.00;;;;;;4993756;28;20651;-65
2021/10/20 08:47:17;;;;;;;7.53;4.20;;;15.90;1.00;;;;;;4994083;28;20228;-60
2021/10/20 08:49:47;;;;;;;5.27;4.20;;;15.80;1.00;;;;;;4993826;28;20257;-61
2021/10/20 08:52:14;;;;;;;6.67;4.43;;;15.80;1.00;;;;;;4992987;28;20604;-62
2021/10/20 08:54:42;;;;;;;9.37;4.67;;;15.90;1.00;;;;;;4993797;28;20219;-61
2021/10/20 08:57:08;;;;;;;6.47;4.50;;;16.10;1.00;;;;;;4994380;28;20207;-62
2021/10/20 08:59:35;;;;;;;10.53;4.13;;;16.30;1.00;;;;;;4994025;28;20211;-62
2021/10/20 09:02:04;;;;;;;8.07;4.60;;;16.30;1.00;;;;;;4994073;28;20232;-62
2021/10/20 09:04:32;;;;;;;6.07;4.37;;;16.40;1.00;;;;;;4993574;28;20294;-63
2021/10/20 09:07:12;;;;;;;6.87;4.33;;;16.50;1.00;;;;;;4993421;28;20220;-64
2021/10/20 09:09:39;;;;;;;7.53;4.27;;;16.60;1.00;;;;;;4993504;28;20639;-65
2021/10/20 09:12:06;;;;;;;6.93;3.70;;;16.60;1.00;;;;;;4993790;28;20232;-61
2021/10/20 09:14:33;;;;;;;8.03;4.03;;;16.50;1.00;;;;;;4993018;28;20208;-62
2021/10/20 09:17:02;;;;;;;8.50;4.60;;;16.50;1.00;;;;;;4993483;28;20672;-60
2021/10/20 09:19:31;;;;;;;6.20;4.20;;;16.50;1.00;;;;;;4993242;28;20215;-61
2021/10/20 09:22:01;;;;;;;6.80;4.33;;;16.50;1.00;;;;;;4993363;28;20265;-66
2021/10/20 09:24:34;;;;;;;6.60;4.20;;;16.50;1.00;;;;;;4994335;28;20208;-67
2021/10/20 09:27:04;;;;;;;6.00;3.77;;;16.50;1.00;;;;;;5012981;28;20300;-66
2021/10/20 09:29:32;;;;;;;5.20;4.40;;;16.50;1.00;;;;;;5012951;28;20218;-67
2021/10/20 09:32:00;;;;;;;4.30;3.90;;;16.50;1.00;;;;;;5012468;28;20231;-67
2021/10/20 09:34:34;;;;;;;7.37;4.20;;;16.50;1.00;;;;;;5012718;28;20211;-68
2021/10/20 09:37:03;;;;;;;4.90;3.90;;;16.50;1.00;;;;;;5012947;28;20241;-69
2021/10/20 09:39:32;;;;;;;5.43;4.00;;;16.60;1.00;;;;;;5012761;28;20207;-69
2021/10/20 09:42:08;;;;;;;6.37;4.20;;;16.50;1.00;;;;;;5012872;28;20235;-68
2021/10/20 09:44:46;;;;;;;6.57;4.37;;;16.40;1.00;;;;;;5011874;28;20207;-67
2021/10/20 09:47:13;;;;;;;7.27;4.50;;;16.30;1.00;;;;;;5012807;28;20226;-67
2021/10/20 09:49:48;;;;;;;9.70;5.47;;;16.30;1.00;;;;;;5012668;28;20622;-72
2021/10/20 09:52:15;;;;;;;6.60;4.63;;;16.40;1.00;;;;;;5012520;28;20718;-64
2021/10/20 09:54:44;;;;;;;6.03;4.20;;;16.40;1.00;;;;;;5011853;28;20218;-64
2021/10/20 09:57:13;;;;;;;5.43;4.27;;;16.50;1.00;;;;;;5012311;28;20219;-61
2021/10/20 09:59:40;;;;;;;7.73;4.83;;;16.50;1.00;;;;;;5012355;28;20265;-64
2021/10/20 10:02:09;;;;;;;6.60;4.30;;;16.30;1.00;;;;;;5011883;28;20719;-64
2021/10/20 10:04:37;;;;;;;8.87;4.43;;;16.30;1.00;;;;;;5011809;28;20207;-65
2021/10/20 10:07:04;;;;;;;5.77;3.97;;;16.40;1.00;;;;;;5012145;28;20277;-63
2021/10/20 10:09:31;;;;;;;9.33;3.93;;;16.40;1.00;;;;;;5012152;28;20593;-63
2021/10/20 10:12:03;;;;;;;7.57;4.20;;;16.50;1.00;;;;;;5011873;28;20786;-61
2021/10/20 10:14:38;;;;;;;9.30;4.20;;;16.60;1.00;;;;;;5011921;28;20581;-60
2021/10/20 10:17:05;;;;;;;6.90;4.20;;;16.80;1.00;;;;;;5012262;28;20199;-61
2021/10/20 10:19:35;;;;;;;7.07;4.37;;;16.70;1.00;;;;;;5012138;28;20207;-61
2021/10/20 10:22:21;;;;;;;6.17;4.50;;;16.60;1.00;;;;;;5011600;28;20243;-62
2021/10/20 10:24:48;;;;;;;6.07;4.57;;;16.20;1.00;;;;;;5011473;28;20758;-62
2021/10/20 10:27:16;;;;;;;7.53;4.63;;;16.20;1.00;;;;;;5011811;28;20227;-62
2021/10/20 10:29:52;;;;;;;8.00;5.00;;;16.10;1.00;;;;;;5011686;28;20237;-62
2021/10/20 10:32:20;;;;;;;5.63;4.30;;;16.00;1.00;;;;;;5011731;28;20615;-62
2021/10/20 10:34:49;;;;;;;5.43;4.70;;;16.00;1.00;;;;;;5011271;28;20671;-62
2021/10/20 10:37:24;;;;;;;6.70;4.80;;;16.00;1.00;;;;;;5011705;28;20619;-63
2021/10/20 10:39:51;;;;;;;6.23;4.60;;;16.00;1.00;;;;;;4979179;28;20270;-61
2021/10/20 10:42:29;;;;;;;8.57;4.50;;;16.00;1.00;;;;;;4992126;28;20207;-62
2021/10/20 10:45:10;;;;;;;6.30;4.87;;;16.00;1.00;;;;;;4991495;28;20630;-61
2021/10/20 10:47:55;;;;;;;6.00;4.77;;;16.00;1.00;;;;;;4992165;28;20318;-62
2021/10/20 10:50:23;;;;;;;6.73;4.70;;;16.00;1.00;;;;;;4992415;28;20316;-61
2021/10/20 10:52:53;;;;;;;7.73;5.23;;;16.00;1.00;;;;;;4991674;28;20680;-63
2021/10/20 10:55:22;;;;;;;7.10;5.37;;;16.00;1.00;;;;;;4991538;28;20662;-62
2021/10/20 10:57:55;;;;;;;7.73;5.17;;;16.00;1.00;;;;;;4991908;28;20266;-64
2021/10/20 11:00:31;;;;;;;7.80;5.40;;;15.90;1.00;;;;;;4991918;28;20246;-62
2021/10/20 11:02:59;;;;;;;6.47;4.67;;;15.90;1.00;;;;;;4991593;28;20211;-64
2021/10/20 11:05:28;;;;;;;5.77;4.80;;;15.90;1.00;;;;;;4990197;28;20275;-66
2021/10/20 11:07:59;;;;;;;8.97;5.10;;;15.90;1.00;;;;;;4991421;28;20258;-61
2021/10/20 11:10:26;;;;;;;7.27;5.23;;;15.90;1.00;;;;;;4992016;28;20238;-61
2021/10/20 11:12:56;;;;;;;6.37;4.83;;;16.00;1.00;;;;;;4992365;28;20203;-62
2021/10/20 11:15:26;;;;;;;5.37;4.40;;;15.90;1.00;;;;;;4995277;28;20208;-63
2021/10/20 11:17:53;;;;;;;6.77;4.83;;;15.90;1.00;;;;;;4995828;28;20625;-64
2021/10/20 11:20:21;;;;;;;6.33;4.83;;;15.90;1.00;;;;;;4995245;28;20227;-64
2021/10/20 11:22:50;;;;;;;7.00;5.00;;;15.80;1.00;;;;;;4995661;28;20265;-63
2021/10/20 11:25:18;;;;;;;7.87;5.67;;;15.80;1.00;;;;;;4995334;28;20215;-63
2021/10/20 11:27:49;;;;;;;5.77;4.70;;;15.80;1.00;;;;;;4995529;28;20228;-65
2021/10/20 11:30:19;;;;;;;8.33;5.03;;;15.80;1.00;;;;;;4995242;28;20228;-66
2021/10/20 11:32:47;;;;;;;8.93;5.10;;;15.80;1.00;;;;;;4995243;28;20211;-65
2021/10/20 11:35:19;;;;;;;9.27;5.33;;;15.80;1.00;;;;;;4994824;28;20215;-66
2021/10/20 11:37:52;;;;;;;9.97;5.23;;;15.70;1.00;;;;;;4995421;28;20672;-67
2021/10/20 11:40:19;;;;;;;7.00;5.60;;;15.70;1.00;;;;;;4995257;28;20237;-65
2021/10/20 11:42:46;;;;;;;7.93;5.80;;;15.70;1.00;;;;;;4995086;28;20207;-65
2021/10/20 11:45:13;;;;;;;7.17;5.47;;;15.70;1.00;;;;;;4994807;28;20578;-66
2021/10/20 11:47:43;;;;;;;7.73;5.40;;;15.80;1.00;;;;;;4994829;28;20224;-65
2021/10/20 11:50:13;;;;;;;6.97;5.43;;;15.90;1.00;;;;;;4995457;28;20239;-65
2021/10/20 11:52:40;;;;;;;8.27;6.10;;;15.90;1.00;;;;;;4994824;28;20587;-59
2021/10/20 11:55:09;;;;;;;8.50;5.47;;;16.00;1.00;;;;;;4994771;28;20209;-64
2021/10/20 11:57:35;;;;;;;8.77;5.40;;;16.00;1.00;;;;;;4995139;28;20291;-63
2021/10/20 12:00:03;;;;;;;6.63;5.20;;;16.00;1.00;;;;;;4994531;28;20215;-62
2021/10/20 12:02:31;;;;;;;7.50;5.73;;;16.00;1.00;;;;;;4994929;28;20208;-62
2021/10/20 12:04:59;;;;;;;9.60;5.07;;;16.00;1.00;;;;;;4994605;28;20235;-62
2021/10/20 12:07:29;;;;;;;8.90;5.33;;;16.10;1.00;;;;;;4994844;28;20219;-64
2021/10/20 12:09:58;;;;;;;10.47;5.57;;;16.20;1.00;;;;;;4994909;28;20243;-64
2021/10/20 12:12:25;;;;;;;7.00;5.37;;;16.30;1.70;;;;;;4994445;28;20961;-64
2021/10/20 12:14:56;;;;;;;8.17;5.70;;;16.40;1.00;;;;;;4994163;28;20688;-65
2021/10/20 12:17:24;;;;;;;6.73;5.50;;;16.40;1.00;;;;;;4995104;28;20638;-65
2021/10/20 12:19:51;;;;;;;8.73;5.47;;;16.40;4.20;;;;;;4994642;28;20432;-65
2021/10/20 12:22:19;;;;;;;6.63;5.37;;;16.40;3.00;;;;;;4994451;28;20208;-63
2021/10/20 12:24:48;;;;;;;7.93;5.47;;;16.40;8.10;;;;;;4993876;28;20204;-62
2021/10/20 12:27:17;;;;;;;7.70;5.00;;;16.40;7.90;;;;;;4994174;28;20684;-64
2021/10/20 12:29:45;;;;;;;9.67;5.27;;;16.50;7.90;;;;;;4994584;28;20602;-62
2021/10/20 12:32:18;;;;;;;7.83;5.70;;;16.50;8.30;;;;;;4994251;28;20669;-63
2021/10/20 12:34:53;;;;;;;7.07;5.17;;;16.40;8.00;;;;;;4994054;28;20294;-63
2021/10/20 12:37:25;;;;;;;6.23;5.30;;;16.40;7.90;;;;;;4994281;28;20199;-66
2021/10/20 12:39:52;;;;;;;8.43;5.30;;;16.50;8.00;;;;;;4994046;28;20236;-65
2021/10/20 12:42:20;;;;;;;6.83;5.40;;;16.50;7.90;;;;;;4994216;28;20231;-64
2021/10/20 12:44:47;;;;;;;7.03;5.23;;;16.50;8.60;;;;;;4994169;28;20318;-64
2021/10/20 12:47:19;;;;;;;8.13;5.13;;;16.50;8.00;;;;;;4994623;28;20230;-63
2021/10/20 12:49:51;;;;;;;7.33;5.50;;;16.50;8.00;;;;;;4994569;28;20298;-64
2021/10/20 12:52:20;;;;;;;6.70;4.90;;;16.50;8.00;;;;;;4994929;28;20227;-64
2021/10/20 12:54:50;;;;;;;7.53;5.50;;;16.60;8.00;;;;;;4994562;28;20208;-64
2021/10/20 12:57:17;;;;;;;10.43;5.80;;;16.60;8.00;;;;;;4994663;28;20296;-64
2021/10/20 12:59:44;;;;;;;7.70;5.20;;;16.70;8.70;;;;;;4994322;28;20211;-64